createdAt,value
2019-05-19T00:01:07.648Z,81.23
2019-05-19T00:03:36.784Z,81.13
2019-05-19T00:06:05.864Z,84.73
2019-05-19T00:08:35.450Z,82.67
2019-05-19T00:11:24.299Z,79.00
2019-05-19T00:14:12.928Z,76.13
2019-05-19T00:16:47.847Z,75.67
2019-05-19T00:19:26.569Z,79.83
2019-05-19T00:22:00.859Z,81.03
2019-05-19T00:24:30.022Z,86.73
2019-05-19T00:26:59.133Z,95.77
2019-05-19T00:29:31.190Z,96.50
2019-05-19T00:32:00.195Z,99.43
2019-05-19T00:34:32.213Z,93.43
2019-05-19T00:37:01.064Z,91.10
2019-05-19T00:39:29.881Z,94.40
2019-05-19T00:41:58.646Z,95.03
2019-05-19T00:44:32.349Z,98.80
2019-05-19T00:47:01.353Z,99.63
2019-05-19T00:49:40.898Z,91.93
2019-05-19T00:52:01.309Z,95.67
2019-05-19T00:54:32.817Z,95.33
2019-05-19T00:57:02.224Z,91.73
2019-05-19T00:59:33.662Z,92.43
2019-05-19T01:02:03.941Z,88.43
2019-05-19T01:04:32.747Z,92.37
2019-05-19T01:07:01.637Z,91.23
2019-05-19T01:09:36.869Z,92.53
2019-05-19T01:12:04.608Z,91.17
2019-05-19T01:14:33.220Z,91.03
2019-05-19T01:17:02.157Z,86.40
2019-05-19T01:19:32.774Z,86.73
2019-05-19T01:22:01.312Z,87.63
2019-05-19T01:24:29.874Z,85.93
2019-05-19T01:26:58.483Z,88.33
2019-05-19T01:29:27.183Z,82.80
2019-05-19T01:31:55.962Z,89.63
2019-05-19T01:34:24.713Z,94.93
2019-05-19T01:36:53.230Z,90.13
2019-05-19T01:39:21.821Z,88.77
2019-05-19T01:41:50.485Z,91.10
2019-05-19T01:44:19.205Z,87.43
2019-05-19T01:46:47.903Z,91.17
2019-05-19T01:49:19.094Z,97.43
2019-05-19T01:51:48.373Z,93.97
2019-05-19T01:54:17.427Z,93.60
2019-05-19T01:56:46.222Z,96.73
2019-05-19T01:59:15.417Z,91.20
2019-05-19T02:01:44.293Z,92.73
2019-05-19T02:04:12.988Z,90.77
2019-05-19T02:06:41.684Z,96.07
2019-05-19T02:09:10.653Z,94.57
2019-05-19T02:11:42.588Z,92.87
2019-05-19T02:14:11.275Z,100.47
2019-05-19T02:16:40.100Z,96.33
2019-05-19T02:19:08.853Z,101.23
2019-05-19T02:21:37.548Z,94.87
2019-05-19T02:24:06.224Z,96.57
2019-05-19T02:26:34.811Z,100.93
2019-05-19T02:29:03.353Z,97.07
2019-05-19T02:31:31.815Z,102.40
2019-05-19T02:34:00.409Z,101.70
2019-05-19T02:36:29.252Z,101.40
2019-05-19T02:38:58.079Z,99.57
2019-05-19T02:41:26.790Z,103.73
2019-05-19T02:43:55.352Z,99.87
2019-05-19T02:46:24.057Z,101.43
2019-05-19T02:48:52.755Z,102.40
2019-05-19T02:51:21.549Z,105.57
2019-05-19T02:53:50.358Z,100.33
2019-05-19T02:56:18.931Z,98.93
2019-05-19T02:58:47.565Z,102.80
2019-05-19T03:01:16.135Z,96.33
2019-05-19T03:03:44.766Z,98.40
2019-05-19T03:06:13.509Z,94.37
2019-05-19T03:08:42.228Z,100.53
2019-05-19T03:11:10.961Z,91.83
2019-05-19T03:13:39.725Z,101.37
2019-05-19T03:16:08.319Z,96.67
2019-05-19T03:18:36.911Z,96.80
2019-05-19T03:21:11.252Z,94.73
2019-05-19T03:23:35.775Z,97.30
2019-05-19T03:26:06.142Z,88.43
2019-05-19T03:28:34.742Z,99.20
2019-05-19T03:31:25.782Z,85.57
2019-05-19T03:33:54.487Z,84.93
2019-05-19T03:36:23.359Z,85.53
2019-05-19T03:38:52.228Z,84.50
2019-05-19T03:41:20.748Z,83.20
2019-05-19T03:43:50.122Z,79.70
2019-05-19T03:46:19.266Z,80.87
2019-05-19T03:48:49.051Z,78.40
2019-05-19T03:51:30.978Z,74.33
2019-05-19T03:53:59.794Z,74.97
2019-05-19T03:56:29.169Z,73.87
2019-05-19T03:58:58.169Z,72.93
2019-05-19T04:01:27.410Z,74.13
2019-05-19T04:03:56.685Z,68.83
2019-05-19T04:06:25.460Z,65.80
2019-05-19T04:08:57.048Z,69.53
2019-05-19T04:11:25.869Z,69.27
2019-05-19T04:13:54.631Z,66.03
2019-05-19T04:16:23.402Z,61.17
2019-05-19T04:18:52.283Z,64.27
2019-05-19T04:21:21.012Z,61.47
2019-05-19T04:23:49.598Z,60.97
2019-05-19T04:26:18.288Z,62.10
2019-05-19T04:28:46.926Z,58.77
2019-05-19T04:31:15.547Z,63.37
2019-05-19T04:33:43.988Z,57.87
2019-05-19T04:36:12.641Z,60.27
2019-05-19T04:38:41.233Z,60.27
2019-05-19T04:41:09.753Z,60.13
2019-05-19T04:43:38.316Z,62.10
2019-05-19T04:46:07.005Z,62.97
2019-05-19T04:48:35.524Z,64.97
2019-05-19T04:51:04.073Z,64.67
2019-05-19T04:53:32.739Z,67.23
2019-05-19T04:56:01.417Z,65.63
2019-05-19T04:58:30.172Z,65.10
2019-05-19T05:00:58.878Z,59.90
2019-05-19T05:03:27.412Z,62.97
2019-05-19T05:05:56.050Z,65.43
2019-05-19T05:08:30.421Z,60.60
2019-05-19T05:10:54.883Z,59.97
2019-05-19T05:13:23.370Z,66.70
2019-05-19T05:15:51.865Z,64.87
2019-05-19T05:18:20.406Z,60.33
2019-05-19T05:20:48.958Z,65.17
2019-05-19T05:23:17.394Z,66.70
2019-05-19T05:25:46.074Z,56.20
2019-05-19T05:28:14.710Z,61.83
2019-05-19T05:30:43.457Z,62.10
2019-05-19T05:33:12.355Z,60.83
2019-05-19T05:35:40.824Z,55.10
2019-05-19T05:38:09.343Z,59.83
2019-05-19T05:40:37.869Z,57.73
2019-05-19T05:43:06.312Z,58.23
2019-05-19T05:45:34.807Z,58.63
2019-05-19T05:48:03.382Z,55.80
2019-05-19T05:50:31.978Z,57.03
2019-05-19T05:53:00.644Z,54.03
2019-05-19T05:55:29.379Z,57.03
2019-05-19T05:58:00.931Z,55.37
2019-05-19T06:00:29.784Z,62.30
2019-05-19T06:02:58.841Z,58.87
2019-05-19T06:05:29.031Z,60.87
2019-05-19T06:07:57.957Z,57.53
2019-05-19T06:10:33.053Z,59.30
2019-05-19T06:13:11.979Z,59.17
2019-05-19T06:15:40.924Z,57.20
2019-05-19T06:18:09.385Z,59.90
2019-05-19T06:20:41.253Z,59.57
2019-05-19T06:23:10.369Z,59.80
2019-05-19T06:25:39.074Z,62.73
2019-05-19T06:28:07.964Z,59.07
2019-05-19T06:30:36.400Z,62.67
2019-05-19T06:33:06.907Z,58.70
2019-05-19T06:35:35.367Z,59.03
2019-05-19T06:38:04.109Z,54.93
2019-05-19T06:40:32.690Z,57.47
2019-05-19T06:43:01.354Z,57.63
2019-05-19T06:45:30.274Z,54.30
2019-05-19T06:47:59.071Z,55.53
2019-05-19T06:50:27.628Z,55.67
2019-05-19T06:53:12.726Z,54.93
2019-05-19T06:55:26.523Z,54.13
2019-05-19T06:57:55.185Z,50.30
2019-05-19T07:00:24.198Z,49.30
2019-05-19T07:02:53.031Z,51.10
2019-05-19T07:05:22.554Z,56.07
2019-05-19T07:11:40.092Z,48.00
2019-05-19T07:14:55.580Z,49.60
2019-05-19T07:18:11.681Z,47.37
2019-05-19T07:20:40.425Z,45.47
2019-05-19T07:23:09.032Z,48.40
2019-05-19T07:25:40.793Z,45.90
2019-05-19T07:28:09.285Z,46.40
2019-05-19T07:30:37.909Z,44.40
2019-05-19T07:33:06.585Z,41.63
2019-05-19T07:35:35.115Z,42.77
2019-05-19T07:38:03.658Z,43.93
2019-05-19T07:40:32.277Z,43.80
2019-05-19T07:43:00.760Z,44.27
2019-05-19T07:45:29.254Z,46.17
2019-05-19T07:47:57.902Z,42.57
2019-05-19T07:50:26.477Z,44.00
2019-05-19T07:52:55.171Z,48.77
2019-05-19T07:55:23.589Z,48.23
2019-05-19T07:57:52.198Z,41.97
2019-05-19T08:00:23.575Z,50.10
2019-05-19T08:02:52.182Z,45.33
2019-05-19T08:05:20.661Z,50.73
2019-05-19T08:07:49.423Z,49.80
2019-05-19T08:10:18.134Z,45.53
2019-05-19T08:12:46.701Z,46.70
2019-05-19T08:15:15.116Z,40.47
2019-05-19T08:17:43.595Z,49.17
2019-05-19T08:20:13.167Z,48.57
2019-05-19T08:22:41.731Z,47.40
2019-05-19T08:25:12.183Z,47.03
2019-05-19T08:27:41.953Z,48.43
2019-05-19T08:30:10.746Z,48.10
2019-05-19T08:32:39.548Z,51.67
2019-05-19T08:35:08.228Z,47.40
2019-05-19T08:37:46.292Z,47.67
2019-05-19T08:40:16.614Z,43.10
2019-05-19T08:42:45.200Z,47.67
2019-05-19T08:45:13.988Z,45.37
2019-05-19T08:47:43.007Z,47.60
2019-05-19T08:50:11.718Z,45.37
2019-05-19T08:52:40.493Z,44.17
2019-05-19T08:55:10.773Z,45.33
2019-05-19T08:57:39.824Z,44.60
2019-05-19T09:00:08.589Z,41.33
2019-05-19T09:02:42.384Z,43.13
2019-05-19T09:05:20.036Z,42.17
2019-05-19T09:07:48.733Z,44.40
2019-05-19T09:10:18.964Z,41.20
2019-05-19T09:12:47.794Z,41.07
2019-05-19T09:15:16.249Z,38.53
2019-05-19T09:17:44.887Z,36.77
2019-05-19T09:20:13.808Z,39.57
2019-05-19T09:22:42.949Z,44.30
2019-05-19T09:25:11.421Z,43.17
2019-05-19T09:27:40.254Z,37.33
2019-05-19T09:30:16.428Z,38.03
2019-05-19T09:32:45.090Z,45.40
2019-05-19T09:35:13.772Z,38.27
2019-05-19T09:37:42.371Z,38.80
2019-05-19T09:40:11.216Z,35.93
2019-05-19T09:42:41.931Z,37.50
2019-05-19T09:45:10.339Z,40.50
2019-05-19T09:47:38.940Z,41.03
2019-05-19T09:50:07.353Z,36.73
2019-05-19T09:52:35.828Z,40.70
2019-05-19T09:55:04.791Z,49.40
2019-05-19T09:57:33.232Z,52.27
2019-05-19T10:00:05.398Z,40.23
2019-05-19T10:02:33.925Z,40.23
2019-05-19T10:05:02.491Z,35.77
2019-05-19T10:07:31.127Z,40.00
2019-05-19T10:10:00.168Z,37.30
2019-05-19T10:12:29.874Z,38.43
2019-05-19T10:14:58.303Z,35.43
2019-05-19T10:17:26.741Z,34.60
2019-05-19T10:19:56.027Z,33.73
2019-05-19T10:22:24.581Z,33.23
2019-05-19T10:25:04.450Z,38.83
2019-05-19T10:27:36.460Z,34.87
2019-05-19T10:33:23.513Z,40.43
2019-05-19T10:36:47.562Z,36.27
2019-05-19T10:40:17.669Z,35.97
2019-05-19T10:42:54.091Z,32.70
2019-05-19T10:50:20.803Z,37.83
2019-05-19T10:56:27.333Z,41.33
2019-05-19T10:59:05.323Z,40.40
2019-05-19T11:01:59.279Z,33.77
2019-05-19T11:22:06.020Z,42.43
2019-05-19T11:35:47.009Z,37.50
2019-05-19T11:38:16.104Z,42.57
2019-05-19T11:40:45.528Z,37.67
2019-05-19T11:43:14.343Z,40.97
2019-05-19T11:45:43.340Z,36.40
2019-05-19T11:48:23.832Z,39.93
2019-05-19T11:50:52.442Z,40.80
2019-05-19T11:53:21.057Z,41.10
2019-05-19T11:56:05.481Z,41.27
2019-05-19T11:58:21.736Z,39.87
2019-05-19T12:00:53.442Z,43.53
2019-05-19T12:03:25.531Z,40.23
2019-05-19T12:05:54.402Z,42.57
2019-05-19T12:08:24.138Z,42.23
2019-05-19T12:10:53.115Z,41.53
2019-05-19T12:13:23.272Z,43.17
2019-05-19T12:15:55.501Z,42.23
2019-05-19T12:18:27.974Z,41.90
2019-05-19T12:21:01.221Z,44.97
2019-05-19T12:23:29.965Z,46.53
2019-05-19T12:26:02.797Z,39.27
2019-05-19T12:28:37.237Z,45.50
2019-05-19T12:31:08.098Z,46.07
2019-05-19T12:33:54.446Z,41.10
2019-05-19T12:36:11.131Z,43.37
2019-05-19T12:38:39.678Z,46.37
2019-05-19T12:41:08.421Z,46.37
2019-05-19T12:43:46.519Z,50.80
2019-05-19T12:46:16.978Z,47.73
2019-05-19T12:48:49.629Z,50.97
2019-05-19T12:51:17.354Z,46.17
2019-05-19T12:53:46.132Z,56.23
2019-05-19T12:56:17.117Z,47.00
2019-05-19T12:58:45.765Z,52.93
2019-05-19T13:01:19.173Z,51.93
2019-05-19T13:03:48.349Z,52.30
2019-05-19T13:06:20.873Z,47.07
2019-05-19T13:09:08.316Z,51.57
2019-05-19T13:11:38.467Z,50.73
2019-05-19T13:14:08.611Z,55.73
2019-05-19T13:16:39.139Z,53.30
2019-05-19T13:19:23.510Z,53.13
2019-05-19T13:22:04.602Z,47.90
2019-05-19T13:24:36.052Z,50.13
2019-05-19T13:27:08.256Z,50.43
2019-05-19T13:29:40.805Z,52.23
2019-05-19T13:32:12.605Z,51.47
2019-05-19T13:34:50.669Z,52.67
2019-05-19T13:37:30.390Z,49.13
2019-05-19T13:40:05.293Z,52.97
2019-05-19T13:42:39.099Z,51.83
2019-05-19T13:45:16.079Z,53.23
2019-05-19T13:47:49.378Z,54.60
2019-05-19T13:50:22.214Z,54.10
2019-05-19T13:52:52.234Z,48.00
2019-05-19T13:55:31.132Z,54.83
2019-05-19T13:58:03.859Z,51.50
2019-05-19T14:00:32.347Z,48.60
2019-05-19T14:03:04.715Z,48.80
2019-05-19T14:05:41.505Z,52.07
2019-05-19T14:08:10.429Z,58.07
2019-05-19T14:10:42.504Z,49.50
2019-05-19T14:13:16.560Z,48.57
2019-05-19T14:15:51.180Z,49.13
2019-05-19T14:18:25.190Z,54.73
2019-05-19T14:21:02.753Z,49.83
2019-05-19T14:23:40.384Z,47.93
2019-05-19T14:26:14.191Z,52.27
2019-05-19T14:28:46.466Z,49.67
2019-05-19T14:31:21.449Z,45.97
2019-05-19T14:34:55.903Z,46.70
2019-05-19T14:36:36.861Z,45.17
2019-05-19T14:39:06.365Z,46.27
2019-05-19T14:41:44.105Z,48.63
2019-05-19T14:44:18.081Z,48.33
2019-05-19T14:46:52.117Z,51.43
2019-05-19T14:49:24.400Z,51.63
2019-05-19T14:52:00.563Z,49.40
2019-05-19T14:54:33.942Z,52.87
2019-05-19T14:57:06.727Z,54.97
2019-05-19T14:59:38.539Z,50.93
2019-05-19T15:02:15.982Z,53.07
2019-05-19T15:04:46.964Z,52.93
2019-05-19T15:07:22.697Z,51.20
2019-05-19T15:09:58.528Z,49.67
2019-05-19T15:12:30.095Z,45.27
2019-05-19T15:15:11.519Z,48.27
2019-05-19T15:17:42.655Z,43.27
2019-05-19T15:20:11.216Z,53.60
2019-05-19T15:22:40.311Z,46.67
2019-05-19T15:25:25.960Z,47.03
2019-05-19T15:28:00.670Z,49.07
2019-05-19T15:30:27.067Z,43.97
2019-05-19T15:32:59.498Z,45.27
2019-05-19T15:35:31.306Z,44.97
2019-05-19T15:38:01.527Z,45.60
2019-05-19T15:40:30.296Z,52.57
2019-05-19T15:42:59.278Z,54.07
2019-05-19T15:45:28.846Z,54.33
2019-05-19T15:47:57.583Z,54.33
2019-05-19T15:50:26.328Z,49.53
2019-05-19T15:52:55.262Z,52.10
2019-05-19T15:55:23.801Z,49.37
2019-05-19T15:57:52.396Z,49.03
2019-05-19T16:00:26.538Z,50.00
2019-05-19T16:02:55.663Z,49.63
2019-05-19T16:05:26.258Z,51.60
2019-05-19T16:07:54.958Z,46.63
2019-05-19T16:10:23.953Z,44.57
2019-05-19T16:12:52.696Z,50.33
2019-05-19T16:15:33.816Z,50.90
2019-05-19T16:18:02.510Z,48.50
2019-05-19T16:20:31.452Z,44.33
2019-05-19T16:23:03.456Z,48.97
2019-05-19T16:25:31.995Z,45.23
2019-05-19T16:28:00.741Z,42.93
2019-05-19T16:30:29.457Z,46.13
2019-05-19T16:32:58.458Z,44.83
2019-05-19T16:35:29.802Z,45.10
2019-05-19T16:38:16.295Z,46.37
2019-05-19T16:40:46.087Z,46.27
2019-05-19T16:43:14.773Z,50.50
2019-05-19T16:45:43.523Z,47.07
2019-05-19T16:48:15.529Z,48.63
2019-05-19T16:50:44.274Z,47.73
2019-05-19T16:53:13.218Z,48.83
2019-05-19T16:55:47.767Z,46.50
2019-05-19T16:58:21.612Z,43.97
2019-05-19T17:00:50.766Z,45.63
2019-05-19T17:03:42.199Z,46.47
2019-05-19T17:06:12.379Z,42.60
2019-05-19T17:08:40.882Z,50.00
2019-05-19T17:11:18.075Z,44.67
2019-05-19T17:13:40.101Z,41.43
2019-05-19T17:16:15.722Z,47.73
2019-05-19T17:19:05.650Z,50.43
2019-05-19T17:21:34.112Z,50.00
2019-05-19T17:24:03.393Z,44.27
2019-05-19T17:26:34.921Z,49.13
2019-05-19T17:29:04.966Z,38.83
2019-05-19T17:31:33.552Z,49.23
2019-05-19T17:34:04.777Z,43.97
2019-05-19T17:36:33.222Z,42.80
2019-05-19T17:39:01.703Z,45.00
2019-05-19T17:41:30.253Z,44.47
2019-05-19T17:43:58.688Z,41.33
2019-05-19T17:46:28.652Z,42.20
2019-05-19T17:48:57.148Z,45.43
2019-05-19T17:51:28.783Z,43.40
2019-05-19T17:53:58.103Z,43.90
2019-05-19T17:56:26.752Z,43.67
2019-05-19T17:58:55.119Z,45.83
2019-05-19T18:01:23.562Z,45.63
2019-05-19T18:03:53.533Z,43.97
2019-05-19T18:06:22.044Z,42.50
2019-05-19T18:08:57.177Z,38.63
2019-05-19T18:11:26.032Z,40.23
2019-05-19T18:13:57.545Z,38.53
2019-05-19T18:16:28.457Z,44.03
2019-05-19T18:19:10.897Z,43.00
2019-05-19T18:21:49.628Z,45.37
2019-05-19T18:24:19.556Z,42.43
2019-05-19T18:26:56.252Z,40.63
2019-05-19T18:29:31.471Z,40.47
2019-05-19T18:31:54.990Z,41.77
2019-05-19T18:34:23.639Z,43.97
2019-05-19T18:36:52.092Z,49.07
2019-05-19T18:39:21.217Z,42.83
2019-05-19T18:41:52.713Z,48.53
2019-05-19T18:44:21.437Z,45.30
2019-05-19T18:46:50.042Z,44.10
2019-05-19T18:49:19.006Z,46.70
2019-05-19T18:51:49.948Z,43.77
2019-05-19T18:54:21.715Z,44.50
2019-05-19T18:56:51.186Z,43.17
2019-05-19T18:59:19.970Z,45.37
2019-05-19T19:01:48.687Z,47.40
2019-05-19T19:04:17.347Z,48.87
2019-05-19T19:06:45.898Z,46.57
2019-05-19T19:09:14.541Z,54.27
2019-05-19T19:11:47.550Z,46.07
2019-05-19T19:14:16.074Z,50.43
2019-05-19T19:16:46.067Z,56.87
2019-05-19T19:19:17.525Z,47.40
2019-05-19T19:21:48.512Z,56.60
2019-05-19T19:24:19.754Z,44.50
2019-05-19T19:26:59.726Z,50.50
2019-05-19T19:29:31.620Z,54.13
2019-05-19T19:32:08.222Z,48.83
2019-05-19T19:34:39.299Z,49.83
2019-05-19T19:39:13.122Z,49.70
2019-05-19T19:40:14.392Z,41.70
2019-05-19T19:42:43.035Z,44.47
2019-05-19T19:45:12.854Z,43.40
2019-05-19T19:47:46.889Z,41.27
2019-05-19T19:50:15.900Z,43.67
2019-05-19T19:52:47.051Z,42.77
2019-05-19T19:55:19.634Z,42.67
2019-05-19T19:57:52.878Z,40.00
2019-05-19T20:03:39.724Z,40.73
2019-05-19T20:06:16.480Z,40.13
2019-05-19T20:10:06.732Z,42.33
2019-05-19T20:14:12.907Z,42.23
2019-05-19T20:24:15.568Z,40.50
2019-05-19T20:35:41.772Z,47.67
2019-05-19T20:45:26.325Z,51.27
2019-05-19T20:48:01.818Z,51.07
2019-05-19T20:51:01.488Z,50.03
2019-05-19T21:00:51.993Z,54.03
2019-05-19T21:06:07.845Z,54.27
2019-05-19T21:11:19.685Z,58.30
2019-05-19T21:17:45.510Z,51.77
2019-05-19T21:20:20.105Z,68.37
2019-05-19T21:23:15.356Z,63.40
2019-05-19T21:25:59.796Z,64.77
2019-05-19T21:29:27.483Z,61.10
2019-05-19T21:31:31.728Z,62.07
2019-05-19T21:34:14.309Z,62.57
2019-05-19T21:37:20.583Z,62.60
2019-05-19T21:39:56.054Z,60.77
2019-05-19T21:42:46.109Z,53.73
2019-05-19T21:45:28.037Z,56.50
2019-05-19T21:48:30.620Z,63.70
2019-05-19T21:51:19.896Z,57.37
2019-05-19T21:53:58.545Z,55.53
2019-05-19T21:56:30.186Z,65.37
2019-05-19T21:59:06.015Z,58.67
2019-05-19T22:02:13.857Z,53.00
2019-05-19T22:04:46.801Z,56.93
2019-05-19T22:13:54.856Z,55.10
2019-05-19T22:16:35.574Z,54.50
2019-05-19T22:19:15.915Z,56.03
2019-05-19T22:21:54.519Z,51.17
2019-05-19T22:24:24.851Z,58.93
2019-05-19T22:26:56.399Z,56.20
2019-05-19T22:29:25.746Z,52.60
2019-05-19T22:31:56.634Z,60.70
2019-05-19T22:34:25.733Z,55.20
2019-05-19T22:36:58.369Z,57.13
2019-05-19T22:39:30.361Z,48.23
2019-05-19T22:42:06.079Z,42.23
2019-05-19T22:44:39.632Z,46.77
2019-05-19T22:47:13.266Z,43.33
2019-05-19T22:49:45.299Z,40.77
2019-05-19T22:52:17.825Z,45.23
2019-05-19T22:54:55.609Z,42.87
2019-05-19T22:57:34.015Z,40.43
2019-05-19T23:00:09.844Z,43.90
2019-05-19T23:02:52.119Z,40.53
2019-05-19T23:05:27.934Z,39.37
2019-05-19T23:08:05.319Z,41.00
2019-05-19T23:10:38.858Z,39.20
2019-05-19T23:13:11.437Z,41.97
2019-05-19T23:16:13.523Z,42.07
2019-05-19T23:18:59.609Z,40.93
2019-05-19T23:21:30.130Z,42.30
2019-05-19T23:24:07.533Z,39.47
2019-05-19T23:26:40.939Z,38.70
2019-05-19T23:29:15.464Z,38.47
2019-05-19T23:32:07.215Z,34.43
2019-05-19T23:34:34.612Z,37.27
2019-05-19T23:37:03.887Z,34.20
2019-05-19T23:39:39.490Z,32.70
2019-05-19T23:42:19.250Z,33.30
2019-05-19T23:44:49.125Z,33.23
2019-05-19T23:47:19.307Z,34.47
2019-05-19T23:49:57.214Z,36.53
2019-05-19T23:52:30.004Z,31.00
2019-05-19T23:54:59.231Z,36.37
2019-05-19T23:57:29.364Z,31.97
